sensor_id;sensor_type;location;lat;lon;timestamp;P1;durP1;ratioP1;P2;durP2;ratioP2
5491;SDS011;2768;53.540;10.224;2022-11-13T00:00:43;9.50;;;7.80;;
5491;SDS011;2768;53.540;10.224;2022-11-13T00:06:55;8.57;;;7.77;;
5491;SDS011;2768;53.540;10.224;2022-11-13T00:13:08;9.57;;;7.50;;
5491;SDS011;2768;53.540;10.224;2022-11-13T00:19:21;8.50;;;7.70;;
5491;SDS011;2768;53.540;10.224;2022-11-13T00:25:34;10.80;;;8.30;;
5491;SDS011;2768;53.540;10.224;2022-11-13T00:31:46;9.90;;;8.90;;
5491;SDS011;2768;53.540;10.224;2022-11-13T00:37:59;10.97;;;8.43;;
5491;SDS011;2768;53.540;10.224;2022-11-13T00:44:11;9.57;;;8.20;;
5491;SDS011;2768;53.540;10.224;2022-11-13T00:50:23;10.50;;;9.27;;
5491;SDS011;2768;53.540;10.224;2022-11-13T00:56:37;11.87;;;9.07;;
5491;SDS011;2768;53.540;10.224;2022-11-13T01:02:49;11.60;;;8.63;;
5491;SDS011;2768;53.540;10.224;2022-11-13T01:09:01;11.43;;;7.97;;
5491;SDS011;2768;53.540;10.224;2022-11-13T01:15:14;10.33;;;8.80;;
5491;SDS011;2768;53.540;10.224;2022-11-13T01:21:26;10.07;;;8.07;;
5491;SDS011;2768;53.540;10.224;2022-11-13T01:27:39;12.20;;;9.63;;
5491;SDS011;2768;53.540;10.224;2022-11-13T01:33:52;12.93;;;9.63;;
5491;SDS011;2768;53.540;10.224;2022-11-13T01:40:05;11.20;;;9.80;;
5491;SDS011;2768;53.540;10.224;2022-11-13T01:46:19;9.60;;;8.70;;
5491;SDS011;2768;53.540;10.224;2022-11-13T01:52:37;10.33;;;9.33;;
5491;SDS011;2768;53.540;10.224;2022-11-13T01:58:52;9.10;;;8.20;;
5491;SDS011;2768;53.540;10.224;2022-11-13T02:05:08;11.13;;;9.40;;
5491;SDS011;2768;53.540;10.224;2022-11-13T02:11:22;10.43;;;8.87;;
5491;SDS011;2768;53.540;10.224;2022-11-13T02:17:36;11.07;;;9.57;;
5491;SDS011;2768;53.540;10.224;2022-11-13T02:23:55;12.07;;;10.20;;
5491;SDS011;2768;53.540;10.224;2022-11-13T02:30:17;10.83;;;9.73;;
5491;SDS011;2768;53.540;10.224;2022-11-13T02:36:36;11.27;;;10.07;;
5491;SDS011;2768;53.540;10.224;2022-11-13T02:42:48;12.43;;;10.33;;
5491;SDS011;2768;53.540;10.224;2022-11-13T02:49:00;10.60;;;9.60;;
5491;SDS011;2768;53.540;10.224;2022-11-13T02:55:13;12.73;;;10.57;;
5491;SDS011;2768;53.540;10.224;2022-11-13T03:01:25;10.80;;;9.40;;
5491;SDS011;2768;53.540;10.224;2022-11-13T03:07:38;12.07;;;10.27;;
5491;SDS011;2768;53.540;10.224;2022-11-13T03:13:51;11.20;;;10.00;;
5491;SDS011;2768;53.540;10.224;2022-11-13T03:20:04;11.10;;;9.70;;
5491;SDS011;2768;53.540;10.224;2022-11-13T03:26:18;12.77;;;10.07;;
5491;SDS011;2768;53.540;10.224;2022-11-13T03:32:30;11.50;;;9.80;;
5491;SDS011;2768;53.540;10.224;2022-11-13T03:38:42;12.57;;;10.20;;
5491;SDS011;2768;53.540;10.224;2022-11-13T03:44:55;11.83;;;9.70;;
5491;SDS011;2768;53.540;10.224;2022-11-13T03:51:07;12.00;;;10.00;;
5491;SDS011;2768;53.540;10.224;2022-11-13T03:57:19;10.83;;;9.60;;
5491;SDS011;2768;53.540;10.224;2022-11-13T04:03:32;12.33;;;10.03;;
5491;SDS011;2768;53.540;10.224;2022-11-13T04:09:45;10.17;;;8.80;;
5491;SDS011;2768;53.540;10.224;2022-11-13T04:15:56;10.37;;;9.27;;
5491;SDS011;2768;53.540;10.224;2022-11-13T04:22:10;11.33;;;9.43;;
5491;SDS011;2768;53.540;10.224;2022-11-13T04:28:22;11.47;;;10.20;;
5491;SDS011;2768;53.540;10.224;2022-11-13T04:34:35;12.63;;;10.07;;
5491;SDS011;2768;53.540;10.224;2022-11-13T04:40:49;11.87;;;10.30;;
5491;SDS011;2768;53.540;10.224;2022-11-13T04:47:21;10.80;;;9.70;;
5491;SDS011;2768;53.540;10.224;2022-11-13T04:53:33;11.30;;;10.00;;
5491;SDS011;2768;53.540;10.224;2022-11-13T04:59:46;11.87;;;10.27;;
5491;SDS011;2768;53.540;10.224;2022-11-13T05:06:02;11.60;;;10.20;;
5491;SDS011;2768;53.540;10.224;2022-11-13T05:12:14;12.97;;;11.47;;
5491;SDS011;2768;53.540;10.224;2022-11-13T05:18:27;10.77;;;9.20;;
5491;SDS011;2768;53.540;10.224;2022-11-13T05:24:40;13.00;;;11.30;;
5491;SDS011;2768;53.540;10.224;2022-11-13T05:30:51;11.30;;;10.10;;
5491;SDS011;2768;53.540;10.224;2022-11-13T05:37:04;12.30;;;11.00;;
5491;SDS011;2768;53.540;10.224;2022-11-13T05:43:16;11.83;;;10.50;;
5491;SDS011;2768;53.540;10.224;2022-11-13T05:49:28;12.80;;;11.40;;
5491;SDS011;2768;53.540;10.224;2022-11-13T05:55:41;12.10;;;9.80;;
5491;SDS011;2768;53.540;10.224;2022-11-13T06:01:53;11.97;;;10.70;;
5491;SDS011;2768;53.540;10.224;2022-11-13T06:08:05;13.40;;;11.63;;
5491;SDS011;2768;53.540;10.224;2022-11-13T06:14:18;13.03;;;11.47;;
5491;SDS011;2768;53.540;10.224;2022-11-13T06:20:32;12.20;;;10.90;;
5491;SDS011;2768;53.540;10.224;2022-11-13T06:26:44;12.17;;;10.97;;
5491;SDS011;2768;53.540;10.224;2022-11-13T06:32:57;11.80;;;10.60;;
5491;SDS011;2768;53.540;10.224;2022-11-13T06:39:10;14.30;;;12.07;;
5491;SDS011;2768;53.540;10.224;2022-11-13T06:45:22;11.73;;;10.27;;
5491;SDS011;2768;53.540;10.224;2022-11-13T06:51:35;14.97;;;11.30;;
5491;SDS011;2768;53.540;10.224;2022-11-13T06:57:48;14.07;;;11.40;;
5491;SDS011;2768;53.540;10.224;2022-11-13T07:03:59;12.47;;;10.80;;
5491;SDS011;2768;53.540;10.224;2022-11-13T07:10:14;13.60;;;11.77;;
5491;SDS011;2768;53.540;10.224;2022-11-13T07:16:26;14.70;;;11.37;;
5491;SDS011;2768;53.540;10.224;2022-11-13T07:22:59;12.87;;;11.47;;
5491;SDS011;2768;53.540;10.224;2022-11-13T07:29:13;12.57;;;10.00;;
5491;SDS011;2768;53.540;10.224;2022-11-13T07:35:25;15.73;;;10.77;;
5491;SDS011;2768;53.540;10.224;2022-11-13T07:41:38;13.17;;;10.50;;
5491;SDS011;2768;53.540;10.224;2022-11-13T07:47:51;12.37;;;10.07;;
5491;SDS011;2768;53.540;10.224;2022-11-13T07:54:03;10.60;;;8.80;;
5491;SDS011;2768;53.540;10.224;2022-11-13T08:00:15;15.40;;;11.10;;
5491;SDS011;2768;53.540;10.224;2022-11-13T08:06:29;16.30;;;12.43;;
5491;SDS011;2768;53.540;10.224;2022-11-13T08:12:42;13.10;;;11.70;;
5491;SDS011;2768;53.540;10.224;2022-11-13T08:18:56;14.00;;;10.20;;
5491;SDS011;2768;53.540;10.224;2022-11-13T08:25:09;18.10;;;11.10;;
5491;SDS011;2768;53.540;10.224;2022-11-13T08:31:21;15.20;;;11.00;;
5491;SDS011;2768;53.540;10.224;2022-11-13T08:37:33;13.17;;;10.13;;
5491;SDS011;2768;53.540;10.224;2022-11-13T08:43:45;13.93;;;10.90;;
5491;SDS011;2768;53.540;10.224;2022-11-13T08:49:57;18.10;;;10.40;;
5491;SDS011;2768;53.540;10.224;2022-11-13T08:56:09;13.33;;;11.10;;
5491;SDS011;2768;53.540;10.224;2022-11-13T09:02:23;15.13;;;10.70;;
5491;SDS011;2768;53.540;10.224;2022-11-13T09:08:35;14.47;;;10.80;;
5491;SDS011;2768;53.540;10.224;2022-11-13T09:14:47;16.93;;;12.13;;
5491;SDS011;2768;53.540;10.224;2022-11-13T09:21:00;13.40;;;10.73;;
5491;SDS011;2768;53.540;10.224;2022-11-13T09:27:13;15.93;;;12.37;;
5491;SDS011;2768;53.540;10.224;2022-11-13T09:33:25;16.27;;;10.77;;
5491;SDS011;2768;53.540;10.224;2022-11-13T09:39:38;15.67;;;12.23;;
5491;SDS011;2768;53.540;10.224;2022-11-13T09:45:50;16.57;;;13.80;;
5491;SDS011;2768;53.540;10.224;2022-11-13T09:52:09;14.30;;;12.23;;
5491;SDS011;2768;53.540;10.224;2022-11-13T09:58:30;17.20;;;13.07;;
5491;SDS011;2768;53.540;10.224;2022-11-13T10:05:01;20.10;;;14.80;;
5491;SDS011;2768;53.540;10.224;2022-11-13T10:11:19;18.30;;;13.57;;
5491;SDS011;2768;53.540;10.224;2022-11-13T10:17:39;13.77;;;11.33;;
5491;SDS011;2768;53.540;10.224;2022-11-13T10:23:54;14.63;;;12.33;;
5491;SDS011;2768;53.540;10.224;2022-11-13T10:30:12;15.53;;;12.40;;
5491;SDS011;2768;53.540;10.224;2022-11-13T10:36:30;16.07;;;13.37;;
5491;SDS011;2768;53.540;10.224;2022-11-13T10:42:46;15.27;;;12.20;;
5491;SDS011;2768;53.540;10.224;2022-11-13T10:49:09;18.20;;;13.10;;
5491;SDS011;2768;53.540;10.224;2022-11-13T10:55:25;19.20;;;14.13;;
5491;SDS011;2768;53.540;10.224;2022-11-13T11:01:48;18.00;;;14.20;;
5491;SDS011;2768;53.540;10.224;2022-11-13T11:08:00;19.00;;;14.70;;
5491;SDS011;2768;53.540;10.224;2022-11-13T11:14:18;18.13;;;13.30;;
5491;SDS011;2768;53.540;10.224;2022-11-13T11:20:41;17.43;;;12.60;;
5491;SDS011;2768;53.540;10.224;2022-11-13T11:26:58;17.30;;;12.23;;
5491;SDS011;2768;53.540;10.224;2022-11-13T11:33:17;14.13;;;11.67;;
5491;SDS011;2768;53.540;10.224;2022-11-13T11:39:36;11.67;;;10.03;;
5491;SDS011;2768;53.540;10.224;2022-11-13T11:45:52;13.93;;;11.10;;
5491;SDS011;2768;53.540;10.224;2022-11-13T11:52:08;11.87;;;9.93;;
5491;SDS011;2768;53.540;10.224;2022-11-13T11:58:36;14.07;;;11.37;;
5491;SDS011;2768;53.540;10.224;2022-11-13T12:05:23;14.47;;;9.30;;
5491;SDS011;2768;53.540;10.224;2022-11-13T12:11:42;10.70;;;8.87;;
5491;SDS011;2768;53.540;10.224;2022-11-13T12:18:04;10.80;;;9.80;;
5491;SDS011;2768;53.540;10.224;2022-11-13T12:24:31;10.70;;;9.43;;
5491;SDS011;2768;53.540;10.224;2022-11-13T12:31:07;10.20;;;9.20;;
5491;SDS011;2768;53.540;10.224;2022-11-13T12:37:31;10.53;;;8.90;;
5491;SDS011;2768;53.540;10.224;2022-11-13T12:43:56;9.60;;;8.70;;
5491;SDS011;2768;53.540;10.224;2022-11-13T12:50:24;10.13;;;9.20;;
5491;SDS011;2768;53.540;10.224;2022-11-13T12:56:41;9.97;;;8.73;;
5491;SDS011;2768;53.540;10.224;2022-11-13T13:03:06;11.17;;;8.67;;
5491;SDS011;2768;53.540;10.224;2022-11-13T13:09:34;10.40;;;9.30;;
5491;SDS011;2768;53.540;10.224;2022-11-13T13:15:54;12.20;;;9.63;;
5491;SDS011;2768;53.540;10.224;2022-11-13T13:22:09;10.77;;;9.67;;
5491;SDS011;2768;53.540;10.224;2022-11-13T13:28:23;12.83;;;9.53;;
5491;SDS011;2768;53.540;10.224;2022-11-13T13:34:38;12.87;;;10.40;;
5491;SDS011;2768;53.540;10.224;2022-11-13T13:41:13;14.43;;;11.67;;
5491;SDS011;2768;53.540;10.224;2022-11-13T13:47:32;16.93;;;13.20;;
5491;SDS011;2768;53.540;10.224;2022-11-13T13:53:49;14.67;;;12.40;;
5491;SDS011;2768;53.540;10.224;2022-11-13T14:00:07;14.63;;;12.23;;
5491;SDS011;2768;53.540;10.224;2022-11-13T14:06:23;16.03;;;12.27;;
5491;SDS011;2768;53.540;10.224;2022-11-13T14:12:39;18.20;;;13.70;;
5491;SDS011;2768;53.540;10.224;2022-11-13T14:19:01;17.50;;;15.30;;
5491;SDS011;2768;53.540;10.224;2022-11-13T14:25:17;15.93;;;14.23;;
5491;SDS011;2768;53.540;10.224;2022-11-13T14:31:33;17.03;;;14.33;;
5491;SDS011;2768;53.540;10.224;2022-11-13T14:37:46;18.43;;;15.47;;
5491;SDS011;2768;53.540;10.224;2022-11-13T14:44:00;18.57;;;15.83;;
5491;SDS011;2768;53.540;10.224;2022-11-13T14:50:19;18.50;;;14.90;;
5491;SDS011;2768;53.540;10.224;2022-11-13T14:56:34;14.07;;;11.90;;
5491;SDS011;2768;53.540;10.224;2022-11-13T15:02:48;11.90;;;10.70;;
5491;SDS011;2768;53.540;10.224;2022-11-13T15:09:00;11.43;;;9.70;;
5491;SDS011;2768;53.540;10.224;2022-11-13T15:15:14;10.97;;;7.77;;
5491;SDS011;2768;53.540;10.224;2022-11-13T15:21:29;8.80;;;7.90;;
5491;SDS011;2768;53.540;10.224;2022-11-13T15:27:42;8.00;;;7.10;;
5491;SDS011;2768;53.540;10.224;2022-11-13T15:33:53;8.50;;;7.07;;
5491;SDS011;2768;53.540;10.224;2022-11-13T15:40:08;6.73;;;5.73;;
5491;SDS011;2768;53.540;10.224;2022-11-13T15:46:21;5.43;;;4.50;;
5491;SDS011;2768;53.540;10.224;2022-11-13T15:52:36;5.03;;;4.40;;
5491;SDS011;2768;53.540;10.224;2022-11-13T15:58:53;5.27;;;4.70;;
5491;SDS011;2768;53.540;10.224;2022-11-13T16:05:04;6.30;;;4.73;;
5491;SDS011;2768;53.540;10.224;2022-11-13T16:11:18;5.07;;;4.30;;
5491;SDS011;2768;53.540;10.224;2022-11-13T16:17:32;7.37;;;4.40;;
5491;SDS011;2768;53.540;10.224;2022-11-13T16:23:51;5.50;;;4.70;;
5491;SDS011;2768;53.540;10.224;2022-11-13T16:30:03;6.67;;;5.00;;
5491;SDS011;2768;53.540;10.224;2022-11-13T16:36:18;5.20;;;4.70;;
5491;SDS011;2768;53.540;10.224;2022-11-13T16:42:31;4.73;;;4.33;;
5491;SDS011;2768;53.540;10.224;2022-11-13T16:48:43;5.90;;;4.83;;
5491;SDS011;2768;53.540;10.224;2022-11-13T16:54:56;5.00;;;4.50;;
5491;SDS011;2768;53.540;10.224;2022-11-13T17:01:15;4.80;;;4.30;;
5491;SDS011;2768;53.540;10.224;2022-11-13T17:07:28;5.00;;;4.40;;
5491;SDS011;2768;53.540;10.224;2022-11-13T17:13:41;3.80;;;3.50;;
5491;SDS011;2768;53.540;10.224;2022-11-13T17:19:54;4.07;;;3.50;;
5491;SDS011;2768;53.540;10.224;2022-11-13T17:26:06;5.67;;;4.70;;
5491;SDS011;2768;53.540;10.224;2022-11-13T17:32:20;4.27;;;3.83;;
5491;SDS011;2768;53.540;10.224;2022-11-13T17:38:32;4.80;;;4.23;;
5491;SDS011;2768;53.540;10.224;2022-11-13T17:44:44;5.70;;;5.10;;
5491;SDS011;2768;53.540;10.224;2022-11-13T17:50:58;5.43;;;4.53;;
5491;SDS011;2768;53.540;10.224;2022-11-13T17:57:11;6.17;;;4.63;;
5491;SDS011;2768;53.540;10.224;2022-11-13T18:03:24;4.10;;;3.70;;
5491;SDS011;2768;53.540;10.224;2022-11-13T18:09:38;4.80;;;4.30;;
5491;SDS011;2768;53.540;10.224;2022-11-13T18:15:50;5.20;;;4.70;;
5491;SDS011;2768;53.540;10.224;2022-11-13T18:22:01;3.90;;;3.60;;
5491;SDS011;2768;53.540;10.224;2022-11-13T18:28:14;6.23;;;5.63;;
5491;SDS011;2768;53.540;10.224;2022-11-13T18:34:27;5.03;;;4.53;;
5491;SDS011;2768;53.540;10.224;2022-11-13T18:40:39;4.77;;;4.30;;
5491;SDS011;2768;53.540;10.224;2022-11-13T18:46:52;7.10;;;5.37;;
5491;SDS011;2768;53.540;10.224;2022-11-13T18:53:05;7.40;;;6.20;;
5491;SDS011;2768;53.540;10.224;2022-11-13T18:59:16;7.60;;;6.33;;
5491;SDS011;2768;53.540;10.224;2022-11-13T19:05:30;6.20;;;5.57;;
5491;SDS011;2768;53.540;10.224;2022-11-13T19:11:42;8.70;;;7.80;;
5491;SDS011;2768;53.540;10.224;2022-11-13T19:17:54;8.97;;;7.60;;
5491;SDS011;2768;53.540;10.224;2022-11-13T19:24:08;8.20;;;6.93;;
5491;SDS011;2768;53.540;10.224;2022-11-13T19:30:23;10.03;;;7.80;;
5491;SDS011;2768;53.540;10.224;2022-11-13T19:36:34;10.60;;;7.97;;
5491;SDS011;2768;53.540;10.224;2022-11-13T19:42:48;12.90;;;9.77;;
5491;SDS011;2768;53.540;10.224;2022-11-13T19:49:01;13.37;;;11.83;;
5491;SDS011;2768;53.540;10.224;2022-11-13T19:55:13;14.03;;;10.80;;
5491;SDS011;2768;53.540;10.224;2022-11-13T20:01:27;13.00;;;9.93;;
5491;SDS011;2768;53.540;10.224;2022-11-13T20:07:41;12.40;;;10.23;;
5491;SDS011;2768;53.540;10.224;2022-11-13T20:13:52;18.40;;;13.40;;
5491;SDS011;2768;53.540;10.224;2022-11-13T20:20:08;17.70;;;12.73;;
5491;SDS011;2768;53.540;10.224;2022-11-13T20:26:20;16.40;;;13.70;;
5491;SDS011;2768;53.540;10.224;2022-11-13T20:32:34;16.60;;;14.50;;
5491;SDS011;2768;53.540;10.224;2022-11-13T20:38:49;16.03;;;12.87;;
5491;SDS011;2768;53.540;10.224;2022-11-13T20:45:02;18.70;;;14.43;;
5491;SDS011;2768;53.540;10.224;2022-11-13T20:51:16;16.40;;;13.20;;
5491;SDS011;2768;53.540;10.224;2022-11-13T20:57:33;17.20;;;14.90;;
5491;SDS011;2768;53.540;10.224;2022-11-13T21:03:50;21.63;;;17.33;;
5491;SDS011;2768;53.540;10.224;2022-11-13T21:10:03;18.93;;;14.80;;
5491;SDS011;2768;53.540;10.224;2022-11-13T21:16:17;19.73;;;16.20;;
5491;SDS011;2768;53.540;10.224;2022-11-13T21:22:29;17.13;;;15.13;;
5491;SDS011;2768;53.540;10.224;2022-11-13T21:28:42;19.63;;;15.20;;
5491;SDS011;2768;53.540;10.224;2022-11-13T21:34:55;17.33;;;15.37;;
5491;SDS011;2768;53.540;10.224;2022-11-13T21:41:11;21.30;;;16.97;;
5491;SDS011;2768;53.540;10.224;2022-11-13T21:47:34;18.53;;;16.43;;
5491;SDS011;2768;53.540;10.224;2022-11-13T21:53:47;21.27;;;17.27;;
5491;SDS011;2768;53.540;10.224;2022-11-13T21:59:59;22.43;;;17.77;;
5491;SDS011;2768;53.540;10.224;2022-11-13T22:06:15;17.60;;;15.17;;
5491;SDS011;2768;53.540;10.224;2022-11-13T22:12:31;22.10;;;17.30;;
5491;SDS011;2768;53.540;10.224;2022-11-13T22:18:43;22.73;;;16.57;;
5491;SDS011;2768;53.540;10.224;2022-11-13T22:24:55;25.83;;;17.63;;
5491;SDS011;2768;53.540;10.224;2022-11-13T22:31:10;22.33;;;16.73;;
5491;SDS011;2768;53.540;10.224;2022-11-13T22:37:24;23.47;;;18.10;;
5491;SDS011;2768;53.540;10.224;2022-11-13T22:43:37;24.70;;;18.23;;
5491;SDS011;2768;53.540;10.224;2022-11-13T22:49:51;25.20;;;19.00;;
5491;SDS011;2768;53.540;10.224;2022-11-13T22:56:05;22.70;;;18.03;;
5491;SDS011;2768;53.540;10.224;2022-11-13T23:02:18;26.20;;;18.00;;
5491;SDS011;2768;53.540;10.224;2022-11-13T23:08:32;25.23;;;18.37;;
5491;SDS011;2768;53.540;10.224;2022-11-13T23:14:47;23.77;;;18.47;;
5491;SDS011;2768;53.540;10.224;2022-11-13T23:20:59;24.83;;;17.53;;
5491;SDS011;2768;53.540;10.224;2022-11-13T23:27:13;23.60;;;17.70;;
5491;SDS011;2768;53.540;10.224;2022-11-13T23:33:25;25.20;;;18.93;;
5491;SDS011;2768;53.540;10.224;2022-11-13T23:39:37;24.10;;;19.50;;
5491;SDS011;2768;53.540;10.224;2022-11-13T23:45:50;25.53;;;18.93;;
5491;SDS011;2768;53.540;10.224;2022-11-13T23:52:02;23.97;;;19.23;;
5491;SDS011;2768;53.540;10.224;2022-11-13T23:58:14;29.27;;;20.30;;
